createdAt,value
2022-12-11T00:03:22.674Z,34.15
2022-12-11T00:07:24.140Z,28.40
2022-12-11T00:11:27.472Z,28.90
2022-12-11T00:15:29.280Z,34.38
2022-12-11T00:19:30.836Z,29.30
2022-12-11T00:23:34.791Z,32.05
2022-12-11T00:27:36.565Z,31.27
2022-12-11T00:31:38.120Z,33.47
2022-12-11T00:35:46.935Z,30.88
2022-12-11T00:39:50.626Z,31.23
2022-12-11T00:43:52.268Z,31.55
2022-12-11T00:47:54.774Z,30.70
2022-12-11T00:51:56.457Z,33.05
2022-12-11T00:55:57.932Z,31.33
2022-12-11T00:59:59.467Z,32.20
2022-12-11T01:04:00.884Z,29.88
2022-12-11T01:08:03.091Z,35.78
2022-12-11T01:12:04.802Z,31.17
2022-12-11T01:16:12.345Z,29.77
2022-12-11T01:20:13.867Z,32.03
2022-12-11T01:24:15.434Z,30.70
2022-12-11T01:28:16.901Z,31.13
2022-12-11T01:32:18.465Z,30.38
2022-12-11T01:36:22.208Z,29.48
2022-12-11T01:40:23.861Z,34.22
2022-12-11T01:44:26.475Z,28.25
2022-12-11T01:48:31.488Z,34.40
2022-12-11T01:52:33.536Z,28.33
2022-12-11T01:56:37.905Z,31.23
2022-12-11T02:00:39.405Z,33.55
2022-12-11T02:04:44.131Z,30.52
2022-12-11T02:08:45.587Z,30.42
2022-12-11T02:12:58.575Z,32.80
2022-12-11T02:21:33.555Z,32.92
2022-12-11T02:25:53.856Z,28.73
2022-12-11T02:29:55.447Z,30.48
2022-12-11T02:34:12.118Z,29.00
2022-12-11T02:38:27.028Z,22.70
2022-12-11T02:42:31.647Z,26.73
2022-12-11T02:46:36.687Z,28.77
2022-12-11T02:50:44.284Z,26.52
2022-12-11T02:54:47.583Z,29.55
2022-12-11T02:58:58.521Z,25.08
2022-12-11T03:03:01.415Z,28.38
2022-12-11T03:07:13.246Z,29.60
2022-12-11T03:11:14.899Z,24.50
2022-12-11T03:15:19.911Z,23.48
2022-12-11T03:19:36.094Z,25.25
2022-12-11T03:23:53.894Z,25.02
2022-12-11T03:28:07.959Z,22.38
2022-12-11T03:32:15.767Z,23.50
2022-12-11T03:36:45.778Z,23.77
2022-12-11T03:40:51.195Z,21.70
2022-12-11T03:44:56.690Z,23.00
2022-12-11T03:49:05.916Z,25.27
2022-12-11T03:53:08.031Z,22.23
2022-12-11T03:57:15.084Z,26.25
2022-12-11T04:01:16.786Z,25.95
2022-12-11T04:05:18.395Z,24.63
2022-12-11T04:09:19.907Z,25.23
2022-12-11T04:13:21.361Z,27.27
2022-12-11T04:17:41.549Z,25.65
2022-12-11T04:22:01.780Z,27.52
2022-12-11T04:26:08.717Z,23.60
2022-12-11T04:30:13.975Z,25.85
2022-12-11T04:34:15.608Z,25.42
2022-12-11T04:38:17.261Z,23.02
2022-12-11T04:42:18.977Z,24.65
2022-12-11T04:46:23.235Z,24.25
2022-12-11T04:50:25.858Z,22.48
2022-12-11T04:54:29.737Z,25.58
2022-12-11T04:58:31.373Z,25.77
2022-12-11T05:02:37.558Z,18.45
2022-12-11T05:06:39.074Z,17.92
2022-12-11T05:10:41.791Z,19.48
2022-12-11T05:14:45.405Z,19.17
2022-12-11T05:18:47.500Z,20.40
2022-12-11T05:22:48.990Z,20.55
2022-12-11T05:26:50.502Z,23.48
2022-12-11T05:30:56.890Z,22.65
2022-12-11T05:34:58.369Z,27.67
2022-12-11T05:39:01.254Z,28.08
2022-12-11T05:43:02.856Z,28.52
2022-12-11T05:47:04.401Z,25.75
2022-12-11T05:51:08.319Z,25.33
2022-12-11T05:55:10.170Z,30.45
2022-12-11T05:59:11.898Z,24.67
2022-12-11T06:03:13.773Z,25.60
2022-12-11T06:07:15.308Z,28.15
2022-12-11T06:11:22.320Z,20.38
2022-12-11T06:15:25.472Z,22.20
2022-12-11T06:19:28.864Z,20.65
2022-12-11T06:23:33.438Z,19.88
2022-12-11T06:27:35.210Z,19.20
2022-12-11T06:31:36.806Z,17.30
2022-12-11T06:35:42.022Z,18.42
2022-12-11T06:39:44.207Z,20.25
2022-12-11T06:43:45.778Z,21.25
2022-12-11T06:47:47.310Z,17.50
2022-12-11T06:51:49.511Z,20.83
2022-12-11T06:55:51.225Z,23.73
2022-12-11T06:59:52.874Z,17.92
2022-12-11T07:03:59.019Z,19.27
2022-12-11T07:08:01.118Z,17.83
2022-12-11T07:12:04.038Z,21.65
2022-12-11T07:16:10.536Z,15.80
2022-12-11T07:20:12.211Z,19.88
2022-12-11T07:24:14.136Z,16.73
2022-12-11T07:28:16.926Z,18.67
2022-12-11T07:32:18.702Z,17.35
2022-12-11T07:36:21.048Z,16.65
2022-12-11T07:40:22.693Z,17.65
2022-12-11T07:44:24.188Z,17.55
2022-12-11T07:48:25.650Z,17.83
2022-12-11T07:52:27.161Z,15.75
2022-12-11T07:56:30.472Z,16.35
2022-12-11T08:00:32.815Z,17.70
2022-12-11T08:04:34.485Z,15.85
2022-12-11T08:08:36.293Z,17.75
2022-12-11T08:12:37.823Z,19.10
2022-12-11T08:16:42.888Z,16.52
2022-12-11T08:20:44.399Z,16.42
2022-12-11T08:24:46.884Z,16.08
2022-12-11T08:28:48.616Z,15.57
2022-12-11T08:32:50.253Z,17.13
2022-12-11T08:36:51.754Z,15.80
2022-12-11T08:40:53.314Z,23.05
2022-12-11T08:44:54.809Z,27.67
2022-12-11T08:48:57.743Z,25.67
2022-12-11T08:52:59.367Z,14.43
2022-12-11T08:57:00.925Z,15.30
2022-12-11T09:01:53.753Z,15.85
2022-12-11T09:05:55.488Z,19.52
2022-12-11T09:09:57.043Z,16.75
2022-12-11T09:14:05.168Z,17.42
2022-12-11T09:18:09.176Z,18.48
2022-12-11T09:22:11.299Z,16.35
2022-12-11T09:26:16.077Z,19.52
2022-12-11T09:30:17.606Z,17.52
2022-12-11T09:34:22.701Z,15.90
2022-12-11T09:38:30.195Z,15.45
2022-12-11T09:43:09.786Z,16.60
2022-12-11T09:47:21.061Z,16.92
2022-12-11T09:51:28.484Z,14.38
2022-12-11T09:55:43.124Z,16.08
2022-12-11T10:00:31.943Z,15.75
2022-12-11T10:05:18.910Z,16.55
2022-12-11T10:09:33.415Z,18.42
2022-12-11T10:14:06.711Z,17.23
2022-12-11T10:18:15.842Z,17.48
2022-12-11T10:22:22.901Z,19.98
2022-12-11T10:26:24.731Z,18.42
2022-12-11T10:30:34.589Z,16.90
2022-12-11T10:34:42.171Z,16.73
2022-12-11T10:38:46.765Z,14.85
2022-12-11T10:42:55.271Z,15.80
2022-12-11T10:47:12.669Z,16.02
2022-12-11T10:51:14.267Z,16.80
2022-12-11T10:55:22.677Z,15.32
2022-12-11T10:59:28.007Z,13.40
2022-12-11T11:03:29.949Z,17.10
2022-12-11T11:07:31.716Z,15.57
2022-12-11T11:11:38.220Z,15.50
2022-12-11T11:15:39.935Z,14.35
2022-12-11T11:19:41.729Z,14.25
2022-12-11T11:23:47.237Z,14.00
2022-12-11T11:27:55.738Z,13.68
2022-12-11T11:32:03.960Z,16.35
2022-12-11T11:36:07.842Z,15.25
2022-12-11T11:40:19.994Z,16.60
2022-12-11T11:45:13.848Z,14.38
2022-12-11T11:49:26.009Z,15.43
2022-12-11T11:59:31.140Z,17.33
2022-12-11T12:03:32.765Z,18.08
2022-12-11T12:13:55.598Z,16.58
2022-12-11T12:18:28.539Z,20.10
2022-12-11T12:22:45.640Z,16.38
2022-12-11T12:27:00.163Z,18.20
2022-12-11T12:31:31.113Z,16.10
2022-12-11T12:35:38.005Z,18.20
2022-12-11T12:39:54.644Z,19.58
2022-12-11T12:44:08.390Z,17.05
2022-12-11T12:48:10.226Z,15.98
2022-12-11T12:52:19.260Z,17.15
2022-12-11T12:56:22.322Z,18.08
2022-12-11T13:00:30.337Z,16.80
2022-12-11T13:09:09.183Z,20.50
2022-12-11T13:13:35.840Z,15.43
2022-12-11T13:17:38.848Z,17.08
2022-12-11T13:21:41.101Z,16.67
2022-12-11T13:25:51.478Z,16.85
2022-12-11T13:30:08.621Z,16.00
2022-12-11T13:34:21.157Z,17.67
2022-12-11T13:38:23.991Z,17.25
2022-12-11T13:42:33.783Z,18.15
2022-12-11T13:46:40.408Z,16.20
2022-12-11T13:50:43.824Z,16.55
2022-12-11T13:54:52.301Z,16.60
2022-12-11T13:58:54.018Z,15.63
2022-12-11T14:02:59.533Z,16.42
2022-12-11T14:07:02.055Z,16.52
2022-12-11T14:11:05.123Z,18.08
2022-12-11T14:15:07.801Z,17.20
2022-12-11T14:19:10.906Z,17.67
2022-12-11T14:23:18.972Z,19.17
2022-12-11T14:27:21.836Z,17.98
2022-12-11T14:31:28.216Z,18.52
2022-12-11T14:35:38.588Z,18.58
2022-12-11T14:39:46.988Z,20.73
2022-12-11T14:43:53.517Z,20.85
2022-12-11T14:47:57.234Z,20.23
2022-12-11T14:52:01.143Z,18.67
2022-12-11T14:56:06.321Z,18.25
2022-12-11T15:00:09.207Z,20.50
2022-12-11T15:04:14.058Z,23.83
2022-12-11T15:08:24.901Z,21.52
2022-12-11T15:12:26.703Z,20.05
2022-12-11T15:16:33.202Z,20.48
2022-12-11T15:20:34.854Z,17.58
2022-12-11T15:24:40.437Z,18.38
2022-12-11T15:28:42.244Z,20.05
2022-12-11T15:32:45.181Z,17.33
2022-12-11T15:36:46.832Z,18.65
2022-12-11T15:40:48.559Z,17.08
2022-12-11T15:44:50.911Z,18.83
2022-12-11T15:48:52.970Z,17.85
2022-12-11T15:52:56.589Z,19.98
2022-12-11T15:57:01.766Z,19.23
2022-12-11T16:01:04.045Z,21.25
2022-12-11T16:05:07.609Z,19.73
2022-12-11T16:09:09.141Z,21.38
2022-12-11T16:13:12.798Z,21.02
2022-12-11T16:17:15.810Z,18.92
2022-12-11T16:21:21.373Z,21.05
2022-12-11T16:25:23.526Z,20.15
2022-12-11T16:29:25.146Z,20.33
2022-12-11T16:33:26.842Z,20.58
2022-12-11T16:37:29.713Z,19.10
2022-12-11T16:41:31.395Z,22.35
2022-12-11T16:45:33.932Z,21.85
2022-12-11T16:49:35.646Z,18.17
2022-12-11T16:53:37.426Z,21.75
2022-12-11T16:57:39.265Z,16.15
2022-12-11T17:01:41.043Z,19.42
2022-12-11T17:05:43.428Z,17.48
2022-12-11T17:09:47.311Z,23.98
2022-12-11T17:13:57.955Z,23.17
2022-12-11T17:17:59.488Z,21.92
2022-12-11T17:22:01.127Z,19.23
2022-12-11T17:26:04.329Z,24.20
2022-12-11T17:30:06.342Z,18.00
2022-12-11T17:34:08.090Z,22.48
2022-12-11T17:38:09.994Z,23.73
2022-12-11T17:42:11.588Z,20.20
2022-12-11T17:46:13.741Z,18.75
2022-12-11T17:50:15.271Z,20.42
2022-12-11T17:54:16.772Z,19.63
2022-12-11T17:58:22.016Z,19.55
2022-12-11T18:02:23.564Z,24.00
2022-12-11T18:06:25.413Z,21.90
2022-12-11T18:10:27.317Z,21.25
2022-12-11T18:14:28.991Z,22.02
2022-12-11T18:18:31.347Z,22.15
2022-12-11T18:22:32.991Z,18.98
2022-12-11T18:26:34.715Z,19.30
2022-12-11T18:30:36.886Z,21.08
2022-12-11T18:34:38.439Z,20.15
2022-12-11T18:38:41.117Z,23.02
2022-12-11T18:42:43.463Z,24.35
2022-12-11T18:46:45.059Z,18.80
2022-12-11T18:50:48.724Z,21.40
2022-12-11T18:54:52.149Z,21.90
2022-12-11T18:58:53.768Z,18.98
2022-12-11T19:03:29.512Z,21.30
2022-12-11T19:08:23.644Z,23.92
2022-12-11T19:12:26.622Z,17.88
2022-12-11T19:16:41.721Z,22.75
2022-12-11T19:21:12.612Z,25.63
2022-12-11T19:25:46.625Z,21.52
2022-12-11T19:29:49.760Z,18.05
2022-12-11T19:33:52.789Z,22.88
2022-12-11T19:37:57.645Z,24.48
2022-12-11T19:41:59.633Z,23.55
2022-12-11T19:46:02.862Z,23.48
2022-12-11T19:50:05.746Z,24.63
2022-12-11T19:54:09.663Z,21.52
2022-12-11T19:58:11.340Z,22.55
2022-12-11T20:02:13.468Z,25.02
2022-12-11T20:06:15.679Z,21.55
2022-12-11T20:10:17.466Z,23.33
2022-12-11T20:14:22.485Z,28.10
2022-12-11T20:19:14.583Z,23.88
2022-12-11T20:24:07.627Z,23.35
2022-12-11T20:28:09.443Z,20.88
2022-12-11T20:32:11.479Z,21.42
2022-12-11T20:36:15.399Z,20.88
2022-12-11T20:40:19.849Z,24.40
2022-12-11T20:44:21.626Z,26.50
2022-12-11T20:48:23.269Z,25.88
2022-12-11T20:52:25.444Z,23.08
2022-12-11T20:56:29.750Z,22.30
2022-12-11T21:00:31.395Z,28.02
2022-12-11T21:04:33.132Z,24.98
2022-12-11T21:08:34.740Z,23.90
2022-12-11T21:12:38.064Z,25.67
2022-12-11T21:16:39.888Z,25.58
2022-12-11T21:21:31.443Z,28.15
2022-12-11T21:25:33.669Z,26.15
2022-12-11T21:29:35.300Z,24.63
2022-12-11T21:33:36.900Z,25.27
2022-12-11T21:37:42.192Z,29.20
2022-12-11T21:41:49.821Z,24.27
2022-12-11T21:46:00.806Z,25.30
2022-12-11T21:50:04.294Z,25.38
2022-12-11T22:05:37.831Z,28.65
2022-12-11T22:09:39.279Z,24.63
2022-12-11T22:13:40.921Z,27.08
2022-12-11T22:17:42.371Z,21.58
2022-12-11T22:21:44.162Z,27.63
2022-12-11T22:25:45.922Z,26.08
2022-12-11T22:29:47.450Z,25.17
2022-12-11T22:33:50.080Z,29.67
2022-12-11T22:37:52.195Z,26.02
2022-12-11T22:41:53.727Z,23.95
2022-12-11T22:45:55.423Z,24.90
2022-12-11T22:49:56.898Z,25.27
2022-12-11T22:53:58.653Z,27.55
2022-12-11T22:58:00.165Z,26.70
2022-12-11T23:02:02.140Z,26.40
2022-12-11T23:06:08.233Z,26.27
2022-12-11T23:10:10.835Z,28.88
2022-12-11T23:14:16.236Z,25.65
2022-12-11T23:18:17.788Z,27.58
2022-12-11T23:22:19.903Z,26.10
2022-12-11T23:26:22.183Z,29.45
2022-12-11T23:30:23.875Z,30.73
2022-12-11T23:34:25.557Z,26.73
2022-12-11T23:38:27.170Z,26.00
2022-12-11T23:42:28.993Z,27.20
2022-12-11T23:46:30.698Z,28.25
2022-12-11T23:50:34.253Z,27.92
2022-12-11T23:54:35.866Z,24.58
2022-12-11T23:58:38.866Z,29.48
